createdAt,value
2023-02-19T00:06:58.307Z,4.93
2023-02-19T00:26:58.286Z,5.06
2023-02-19T00:46:58.336Z,5.12
2023-02-19T01:06:58.303Z,5.12
2023-02-19T01:26:58.242Z,5.06
2023-02-19T01:46:58.213Z,5.00
2023-02-19T02:26:58.196Z,5.12
2023-02-19T02:46:58.195Z,5.00
2023-02-19T03:06:58.163Z,5.00
2023-02-19T03:26:58.162Z,4.87
2023-02-19T03:46:58.146Z,5.00
2023-02-19T04:06:58.112Z,5.12
2023-02-19T04:26:58.132Z,5.00
2023-02-19T04:46:58.070Z,5.00
2023-02-19T05:06:58.102Z,5.06
2023-02-19T05:26:58.069Z,5.00
2023-02-19T05:46:58.018Z,5.12
2023-02-19T06:06:58.008Z,5.12
2023-02-19T06:26:58.115Z,5.12
2023-02-19T06:46:57.982Z,5.18
2023-02-19T07:06:57.966Z,5.06
2023-02-19T07:26:57.974Z,5.12
2023-02-19T07:46:57.941Z,5.18
2023-02-19T08:06:57.962Z,5.18
2023-02-19T08:26:57.941Z,5.00
2023-02-19T08:46:57.897Z,5.43
2023-02-19T09:06:57.865Z,5.18
2023-02-19T09:26:57.966Z,5.18
2023-02-19T09:46:57.923Z,5.18
2023-02-19T10:06:57.821Z,5.31
2023-02-19T10:26:57.876Z,5.18
2023-02-19T10:46:57.776Z,5.18
2023-02-19T11:06:57.784Z,5.12
2023-02-19T11:26:57.758Z,5.18
2023-02-19T11:46:57.742Z,5.18
2023-02-19T12:06:57.714Z,5.31
2023-02-19T12:26:57.714Z,5.31
2023-02-19T12:46:57.688Z,5.18
2023-02-19T13:06:57.658Z,5.18
2023-02-19T13:26:57.729Z,5.31
2023-02-19T13:46:57.623Z,5.18
2023-02-19T14:06:57.609Z,5.25
2023-02-19T14:26:57.584Z,5.25
2023-02-19T14:46:57.568Z,5.37
2023-02-19T15:06:57.571Z,5.43
2023-02-19T15:26:57.590Z,5.43
2023-02-19T15:46:57.527Z,5.25
2023-02-19T16:06:57.502Z,5.31
2023-02-19T16:26:57.491Z,5.25
2023-02-19T16:46:57.471Z,5.31
2023-02-19T17:06:57.533Z,5.31
2023-02-19T17:26:57.556Z,5.31
2023-02-19T17:46:57.415Z,5.25
2023-02-19T18:06:57.413Z,5.31
2023-02-19T18:26:57.393Z,5.37
2023-02-19T18:46:57.380Z,5.37
2023-02-19T19:06:57.377Z,5.25
2023-02-19T19:26:57.456Z,5.43
2023-02-19T19:46:57.371Z,5.37
2023-02-19T20:06:57.352Z,5.37
2023-02-19T20:26:57.324Z,5.25
2023-02-19T20:46:57.285Z,5.25
2023-02-19T21:06:57.264Z,5.43
2023-02-19T21:26:57.255Z,5.37
2023-02-19T21:46:57.249Z,5.25
2023-02-19T22:06:57.242Z,5.37
2023-02-19T22:26:57.278Z,5.25
2023-02-19T22:46:57.245Z,5.25
2023-02-19T23:06:57.193Z,5.25
2023-02-19T23:26:57.185Z,5.43
2023-02-19T23:46:57.158Z,5.37
